This is the latest recevied weather packets stored in our database for station/object KD6VLN-14. If no packets are shown the sender has not sent any weather packets the latest 10 day(s).
| Time | Temp. | Humidity | Pressure | Rain* | Wind** | Luminosity | Snow |
|---|---|---|---|---|---|---|---|
| 1777593165 | 26.67° C | 24% | - | 0 mm | - | - | - |
| 1777592938 | 26.67° C | 24% | - | 0 mm | - | - | - |
| 1777592835 | 26.11° C | 26% | - | 0 mm | - | - | - |
| 1777592639 | 26.11° C | 26% | - | 0 mm | - | - | - |
| 1777592636 | 26.11° C | 28% | - | 0 mm | - | - | - |
| 1777592338 | 26.11° C | 28% | - | 0 mm | - | - | - |
| 1777592313 | 25.56° C | 29% | - | 0 mm | - | - | - |
| 1777592071 | 25.56° C | 31% | - | 0 mm | - | - | - |
| 1777592038 | 25.56° C | 29% | - | 0 mm | - | - | - |
| 1777591773 | 25° C | 32% | - | 0 mm | - | - | - |
| 1777591738 | 25.56° C | 31% | - | 0 mm | - | - | - |
| 1777591449 | 25° C | 33% | - | 0 mm | - | - | - |
| 1777591440 | 25° C | 32% | - | 0 mm | - | - | - |
| 1777591137 | 25° C | 33% | - | 0 mm | - | - | - |
| 1777591041 | 26.11° C | 26% | - | 0 mm | - | - | - |
| 1777590837 | 26.11° C | 26% | - | 0 mm | - | - | - |
| 1777590804 | 26.67° C | 23% | - | 0 mm | - | - | - |
| 1777590537 | 26.67° C | 23% | - | 0 mm | - | - | - |
| 1777590484 | 27.78° C | 23% | - | 0 mm | - | - | - |
| 1777590237 | 27.78° C | 23% | - | 0 mm | - | - | - |
| 1777590159 | 28.33° C | 23% | - | 0 mm | - | - | - |
| 1777589937 | 28.33° C | 23% | - | 0 mm | - | - | - |
| 1777589867 | 28.89° C | 23% | - | 0 mm | - | - | - |
| 1777589672 | 30° C | 22% | - | 0 mm | - | - | - |
| 1777589637 | 28.89° C | 23% | - | 0 mm | - | - | - |
* Rain latest hour (hover to see other rain measurements)
** Current wind speed in m/s (hover to see current wind gust speed)